Aviation Digital Data Service (ADDS)

Output produced by METARs form (1602 UTC 03 December 2021)
found at http://www.aviationweather.gov/metar/data/
 
VTBS 031530Z 05004KT 9999 FEW020 25/14 Q1017 NOSIG
VTBS 031500Z 04007KT 9999 FEW020 25/14 Q1017 NOSIG
VTBS 031430Z 04006KT 9999 FEW020 25/14 Q1017 NOSIG
VTBS 031400Z 05006KT 9999 FEW030 26/15 Q1017 NOSIG
VTBS 031330Z 04006KT 9999 FEW030 26/16 Q1016 NOSIG
VTBS 031300Z 08004KT 9999 FEW025 25/18 Q1016 NOSIG
VTBS 031230Z 08005KT 030V100 9999 FEW025 26/18 Q1015 NOSIG
VTBS 031200Z 08005KT 9999 FEW025 26/18 Q1015 NOSIG
VTBS 031130Z 08005KT 9999 FEW025 26/18 Q1014 NOSIG
VTBS 031100Z 08006KT 010V100 9999 FEW025 26/17 Q1014 NOSIG
VTBS 031030Z 07006KT 040V100 9999 FEW025 27/17 Q1014 NOSIG
VTBS 031000Z 08006KT 9999 FEW025 28/17 Q1013 NOSIG
VTBS 030930Z 07006KT 040V110 9999 FEW025 28/17 Q1013 NOSIG
VTBS 030900Z 06006KT 350V100 9999 FEW025 28/17 Q1013 NOSIG
VTBS 030830Z 07005KT 360V110 9999 FEW025 29/16 Q1013 NOSIG
VTBS 030800Z 05005KT 020V100 9999 FEW025 28/17 Q1013 NOSIG
VTBS 030730Z 04007KT 360V090 9999 FEW025 28/16 Q1013 NOSIG
VTBS 030700Z 06007KT 030V090 9999 FEW020 28/16 Q1014 NOSIG
VTBS 030630Z 06008KT 030V090 9999 FEW020 28/16 Q1014 NOSIG
VTBS 030600Z 07008KT 030V100 9999 FEW020 27/16 Q1015 NOSIG
VTBS 030530Z 05008KT 9999 FEW020 27/16 Q1015 NOSIG
VTBS 030500Z 08008KT 040V120 9999 FEW020 27/16 Q1016 NOSIG
VTBS 030430Z 08008KT 040V100 9999 FEW020 26/16 Q1017 NOSIG
VTBS 030400Z 06008KT 030V100 9999 FEW020 26/16 Q1017 NOSIG
VTBS 030330Z 07009KT 9999 FEW020 25/16 Q1018 NOSIG
VTBS 030300Z 08010KT 9999 FEW020 26/16 Q1018 NOSIG
VTBS 030230Z 06009KT 9999 FEW020 SCT100 25/16 Q1018 NOSIG
VTBS 030200Z 08009KT 040V100 9999 FEW020 SCT100 25/17 Q1018 NOSIG
VTBS 030130Z 07009KT 9999 FEW020 SCT100 24/16 Q1017 NOSIG
VTBS 030100Z 06007KT 9999 FEW020 SCT100 23/17 Q1017 NOSIG
VTBS 030030Z 05006KT 020V080 9999 FEW020 SCT100 22/17 Q1016 NOSIG
VTBS 030000Z 06005KT 9000 FEW020 22/17 Q1016 NOSIG
VTBS 022330Z 05005KT 9000 FEW020 22/17 Q1016 NOSIG
VTBS 022300Z VRB02KT 9999 FEW020 22/18 Q1015 NOSIG
VTBS 022230Z VRB02KT 9999 FEW020 21/18 Q1015 NOSIG
VTBS 022200Z 07003KT 9999 FEW020 22/18 Q1015 NOSIG
VTBS 022130Z 03003KT 9999 FEW020 22/18 Q1015 NOSIG
VTBS 022100Z 04006KT 9999 FEW020 23/17 Q1014 NOSIG
VTBS 022030Z 03006KT 9999 FEW020 SCT090 23/17 Q1014 NOSIG
VTBS 022000Z 36004KT 9999 FEW020 SCT090 23/18 Q1014 NOSIG
VTBS 021930Z 36004KT 9999 FEW020 SCT090 23/18 Q1014 NOSIG
VTBS 021900Z 35004KT 9999 FEW020 SCT090 23/18 Q1015 NOSIG
VTBS 021830Z 01004KT 340V050 9999 FEW020 23/17 Q1015 NOSIG
VTBS 021800Z VRB02KT 9999 FEW020 23/17 Q1015 NOSIG
VTBS 021730Z 04004KT 360V060 9999 FEW020 24/17 Q1015 NOSIG
VTBS 021700Z 05003KT 9999 FEW020 24/17 Q1015 NOSIG
VTBS 021630Z 04006KT 9999 FEW020 24/17 Q1015 NOSIG
VTBS 021600Z 04007KT 9999 FEW020 SCT100 25/17 Q1015 NOSIG
VTBS 021530Z 05006KT 9999 FEW020 SCT100 25/17 Q1015 NOSIG
TAF VTBS 031100Z 0312/0418 05008KT 9999 FEW025